TAF and METAR

Could not understand the following METAR

YPLM 251330Z AUTO 21015KT 9999 // NCD 23/14 Q1015 RF00.0/000.0

TAF for Learmonth Airport

TAF YPLM 251056Z 2512/2612 21012KT CAVOK FM260200 17014KT CAVOK FM260600 22018KT CAVOK
Report created 25. sep 12:56

between 25. sep 14:00 - 26. sep 14:00

wind 12 knots from SSW (210°) Clear sky

From 26. sep 04:00

wind 14 knots from S (170°) Clear sky

From 26. sep 08:00

wind 18 knots from SW (220°) Clear sky